| Date | Time | Temp. (oF) | Dew Point (oF) | Rel. Hum. (%) | Press. (in.) | Wind Dir. | Wind Speed (mph) | Hourly Rainfall (in.) |
|
|---|---|---|---|---|---|---|---|---|---|
| 1 | 08/06 | 00:00 | 72 | 71 | 98 | 29.85 | SE | 0 | 0.00 |
| 2 | 08/05 | 23:00 | 73 | 71 | 96 | 29.83 | ESE | 1 | 0.00 |
| 3 | 08/05 | 22:00 | 74 | 72 | 94 | 29.84 | ESE | 0 | 0.00 |
| 4 | 08/05 | 21:00 | 75 | 71 | 90 | 29.82 | ENE | 4 | 0.00 |
| 5 | 08/05 | 20:00 | 77 | 71 | 84 | 29.81 | SSE | 3 | 0.00 |
| 6 | 08/05 | 19:00 | 79 | 71 | 79 | 29.80 | S | 2 | 0.00 |
| 7 | 08/05 | 18:00 | 80 | 73 | 81 | 29.80 | SE | 3 | 0.00 |
| 8 | 08/05 | 17:00 | 77 | 73 | 89 | 29.82 | SE | 4 | 0.00 |
| 9 | 08/05 | 16:00 | 74 | 73 | 98 | 29.84 | SSE | 4 | 0.00 |
| 10 | 08/05 | 15:00 | 73 | 72 | 97 | 29.86 | E | 3 | 0.05 |
| 11 | 08/05 | 14:00 | 74 | 69 | 87 | 29.86 | WSW | 3 | 0.01 |
| 12 | 08/05 | 13:00 | 74 | 70 | 88 | 29.87 | N | 4 | 0.00 |
| 13 | 08/05 | 12:00 | 78 | 75 | 93 | 29.87 | SSE | 3 | 0.00 |
| 14 | 08/05 | 11:00 | 78 | 76 | 95 | 29.88 | S | 3 | 0.00 |
| 15 | 08/05 | 10:00 | 77 | 75 | 95 | 29.89 | S | 4 | -0.01 |
| 16 | 08/04 | 14:57 | 82 | 74 | 79 | 29.92 | SSE | 10 | 0.00 |
| 17 | 08/04 | 14:56 | 82 | 75 | 82 | 29.92 | S | 8 | 0.00 |
| 18 | 08/04 | 14:55 | 82 | 75 | 82 | 29.92 | SSE | 10 | 0.00 |
| 19 | miss | miss | miss | miss | miss | miss | miss | miss | |
| 20 | 08/04 | 14:53 | 82 | 76 | 83 | 29.92 | S | 7 | 0.00 |
| 21 | miss | miss | miss | miss | miss | miss | miss | miss | |
| 22 | 08/04 | 14:51 | 81 | 75 | 83 | 29.92 | S | 7 | 0.00 |
| 23 | miss | miss | miss | miss | miss | miss | miss | miss | |
| 24 | 08/04 | 14:49 | 81 | 75 | 83 | 29.92 | S | 6 | 0.00 |
| 25 | miss | miss | miss | miss | miss | miss | miss | miss | |
| 26 | 08/04 | 14:48 | 81 | 74 | 82 | 29.92 | SSW | 8 | 0.00 |
| 27 | miss | miss | miss | miss | miss | miss | miss | miss | |
| 28 | 08/04 | 14:48 | 81 | 74 | 82 | 29.92 | SSW | 8 | 0.00 |
| 29 | miss | miss | miss | miss | miss | miss | miss | miss | |
| 30 | 08/04 | 14:48 | 81 | 74 | 82 | 29.92 | SSW | 8 | 0.00 |
| 31 | miss | miss | miss | miss | miss | miss | miss | miss | |
| 32 | 08/04 | 14:48 | 81 | 74 | 82 | 29.92 | SSW | 8 | 0.00 |
| 33 | miss | miss | miss | miss | miss | miss | miss | miss | |
| 34 | 08/04 | 14:48 | 81 | 74 | 82 | 29.92 | SSW | 8 | 0.00 |
| 35 | 08/04 | 14:00 | 80 | 76 | 88 | 29.93 | SSE | 5 | 0.00 |
| 36 | 08/04 | 13:00 | 77 | 75 | 96 | 29.95 | SSE | 3 | 0.32 |
| 37 | 08/04 | 12:00 | 80 | 75 | 86 | 29.96 | SW | 5 | 0.00 |
| 38 | 08/04 | 11:00 | 79 | 76 | 92 | 29.97 | S | 4 | 0.00 |
| 39 | 08/04 | 10:00 | 75 | 75 | 100 | 29.98 | SSW | 3 | 0.02 |
| 40 | 08/04 | 09:00 | 74 | 73 | 100 | 29.99 | SE | 0 | 0.00 |
| 41 | 08/04 | 08:00 | 73 | 72 | 100 | 29.97 | E | 1 | 0.00 |
| 42 | 08/04 | 07:00 | 72 | 72 | 100 | 29.97 | NNE | 2 | 0.00 |
| 43 | 08/04 | 06:00 | 73 | 72 | 100 | 29.97 | E | 0 | 0.00 |
| 44 | 08/04 | 05:00 | 75 | 74 | 99 | 29.97 | ESE | 2 | 0.03 |
| 45 | 08/04 | 04:00 | 76 | 75 | 97 | 29.97 | SE | 2 | 0.00 |
| 46 | 08/04 | 03:00 | 76 | 75 | 97 | 29.97 | SE | 2 | 0.00 |
| 47 | 08/04 | 02:00 | 76 | 74 | 96 | 29.98 | SSE | 1 | 0.00 |
| 48 | 08/04 | 01:00 | 76 | 75 | 97 | 29.99 | SSW | 4 | 0.00 |
| 49 | 08/04 | 00:00 | 76 | 74 | 96 | 29.99 | S | 5 | 0.00 |
| 50 | 08/03 | 23:00 | 76 | 74 | 95 | 29.99 | SSE | 5 | 0.00 |
| 51 | 08/03 | 22:00 | 76 | 74 | 95 | 30.01 | SSW | 5 | 0.00 |
| 52 | 08/03 | 21:00 | 77 | 74 | 92 | 30.00 | ESE | 4 | 0.00 |
| 53 | 08/03 | 20:00 | 78 | 74 | 88 | 30.01 | S | 7 | 0.00 |
| 54 | 08/03 | 19:00 | 80 | 73 | 82 | 29.99 | SSE | 4 | 0.00 |
| 55 | 08/03 | 18:00 | 82 | 75 | 80 | 29.98 | S | 11 | 0.00 |
| 56 | 08/03 | 17:00 | 80 | 75 | 87 | 29.99 | SSW | 6 | 0.00 |
| 57 | 08/03 | 16:00 | 82 | 75 | 81 | 29.99 | S | 5 | 0.00 |
| 58 | 08/03 | 15:00 | 85 | 76 | 77 | 29.99 | SE | 12 | 0.00 |
| 59 | 08/03 | 14:00 | 84 | 76 | 78 | 30.03 | SSE | 7 | 0.00 |
| 60 | 08/03 | 13:00 | 82 | 75 | 82 | 30.04 | S | 8 | 0.00 |
| 61 | 08/03 | 12:00 | 82 | 77 | 85 | 30.05 | SSE | 5 | 0.00 |
| 62 | 08/03 | 11:00 | 79 | 75 | 90 | 30.06 | S | 9 | 0.00 |
| 63 | 08/03 | 10:00 | 78 | 75 | 92 | 30.06 | S | 9 | 0.00 |
| 64 | 08/03 | 09:00 | 77 | 75 | 95 | 30.06 | S | 5 | 0.00 |
| 65 | 08/03 | 08:00 | 76 | 75 | 99 | 30.06 | SSE | 3 | 0.00 |
| 66 | 08/03 | 07:00 | 75 | 75 | 100 | 30.06 | S | 4 | 0.00 |
| 67 | 08/03 | 06:00 | 75 | 75 | 100 | 30.05 | SSE | 1 | 0.00 |
| 68 | 08/03 | 05:00 | 75 | 75 | 100 | 30.04 | S | 2 | 0.00 |